Time;durP1;ratioP1;P1;durP2;ratioP2;P2;SDS_P1;SDS_P2;PMS_P1;PMS_P2;Temp;Humidity;BMP_temperature;BMP_pressure;BME280_temperature;BME280_humidity;BME280_pressure;Samples;Min_cycle;Max_cycle;Signal;HPM_P1;HPM_P2
2024/04/15 00:00:34;;;;;;;;;;;13.50;99.90;;;;;;5475620;26;19952;-63
2024/04/15 00:03:01;;;;;;;;;;;13.50;99.90;;;;;;5485906;26;19938;-63
2024/04/15 00:05:28;;;;;;;;;;;13.40;99.90;;;;;;5479918;26;19943;-63
2024/04/15 00:07:59;;;;;;;;;;;13.40;99.90;;;;;;5479667;26;19927;-63
2024/04/15 00:10:26;;;;;;;;;;;13.40;99.90;;;;;;5486045;26;19935;-63
2024/04/15 00:12:53;;;;;;;;;;;13.30;99.90;;;;;;5486682;26;19935;-63
2024/04/15 00:15:20;;;;;;;;;;;13.40;99.90;;;;;;5484673;26;20268;-63
2024/04/15 00:17:52;;;;;;;;;;;13.30;99.90;;;;;;5477734;26;19932;-63
2024/04/15 00:20:18;;;;;;;;;;;13.30;99.90;;;;;;5485678;26;19932;-63
2024/04/15 00:22:50;;;;;;;;;;;13.30;99.90;;;;;;5480210;26;19940;-63
2024/04/15 00:25:17;;;;;;;;;;;13.20;99.90;;;;;;5476533;26;19964;-63
2024/04/15 00:27:44;;;;;;;;;;;13.20;99.90;;;;;;5477531;26;19956;-63
2024/04/15 00:30:16;;;;;;;;;;;13.20;99.90;;;;;;5455805;26;19936;-63
2024/04/15 00:32:42;;;;;;;;;;;13.10;99.90;;;;;;5483867;26;19931;-63
2024/04/15 00:35:14;;;;;;;;;;;13.10;99.90;;;;;;5486436;26;20297;-63
2024/04/15 00:37:41;;;;;;;;;;;13.10;99.90;;;;;;5485814;26;19948;-63
2024/04/15 00:40:08;;;;;;;;;;;13.00;99.90;;;;;;5485627;26;19928;-63
2024/04/15 00:42:40;;;;;;;;;;;13.00;99.90;;;;;;5478623;26;19932;-63
2024/04/15 00:45:25;;;;;;;;;;;13.00;99.90;;;;;;5483216;26;19996;-63
2024/04/15 00:47:52;;;;;;;;;;;12.90;99.90;;;;;;5475266;26;19929;-63
2024/04/15 00:50:19;;;;;;;;;;;12.80;99.90;;;;;;5479568;26;19936;-63
2024/04/15 00:52:46;;;;;;;;;;;12.80;99.90;;;;;;5476836;26;19927;-63
2024/04/15 00:55:13;;;;;;;;;;;12.80;99.90;;;;;;5480478;26;19960;-63
2024/04/15 00:57:43;;;;;;;;;;;12.80;99.90;;;;;;5479842;26;19980;-63
2024/04/15 01:00:12;;;;;;;;;;;12.70;99.90;;;;;;5478223;26;19935;-63
2024/04/15 01:02:40;;;;;;;;;;;12.60;99.90;;;;;;5482594;26;19928;-63
2024/04/15 01:05:07;;;;;;;;;;;12.60;99.90;;;;;;5506510;25;19928;-63
2024/04/15 01:07:35;;;;;;;;;;;12.60;99.90;;;;;;5482646;26;19944;-63
2024/04/15 01:10:03;;;;;;;;;;;12.60;99.90;;;;;;5484265;26;19928;-63
2024/04/15 01:12:30;;;;;;;;;;;12.50;99.90;;;;;;5476642;26;19935;-63
2024/04/15 01:14:57;;;;;;;;;;;12.50;99.90;;;;;;5480397;26;19960;-63
2024/04/15 01:17:24;;;;;;;;;;;12.40;99.90;;;;;;5484341;26;19935;-63
2024/04/15 01:19:51;;;;;;;;;;;12.70;99.90;;;;;;5476172;26;20372;-63
2024/04/15 01:22:23;;;;;;;;;;;13.20;99.90;;;;;;5476150;26;19928;-63
2024/04/15 01:24:55;;;;;;;;;;;13.50;99.90;;;;;;5481890;26;19932;-63
2024/04/15 01:27:21;;;;;;;;;;;13.80;99.90;;;;;;5477354;26;19944;-63
2024/04/15 01:29:48;;;;;;;;;;;14.00;99.90;;;;;;5486133;26;20311;-63
2024/04/15 01:32:15;;;;;;;;;;;14.30;99.90;;;;;;5485320;26;19932;-63
2024/04/15 01:34:42;;;;;;;;;;;14.50;99.90;;;;;;5479660;26;19937;-63
2024/04/15 01:37:09;;;;;;;;;;;14.60;99.90;;;;;;5484802;26;20368;-63
2024/04/15 01:39:35;;;;;;;;;;;14.70;99.90;;;;;;5476873;26;19965;-63
2024/04/15 01:42:02;;;;;;;;;;;14.70;99.90;;;;;;5478987;26;20371;-63
2024/04/15 01:44:34;;;;;;;;;;;14.70;99.90;;;;;;5510869;26;19927;-63
2024/04/15 01:47:06;;;;;;;;;;;14.70;99.90;;;;;;5476941;26;19939;-63
2024/04/15 01:49:32;;;;;;;;;;;14.70;99.90;;;;;;5480459;26;19928;-63
2024/04/15 01:51:59;;;;;;;;;;;14.70;99.90;;;;;;5479262;26;19961;-63
2024/04/15 01:54:31;;;;;;;;;;;14.80;99.90;;;;;;5485034;26;19928;-67
2024/04/15 01:57:03;;;;;;;;;;;14.90;99.90;;;;;;5479744;26;19927;-63
2024/04/15 01:59:29;;;;;;;;;;;15.00;99.90;;;;;;5483184;26;19963;-63
2024/04/15 02:02:01;;;;;;;;;;;15.00;99.90;;;;;;5481672;26;19932;-63
2024/04/15 02:04:33;;;;;;;;;;;15.10;99.90;;;;;;5477485;26;19934;-63
2024/04/15 02:07:00;;;;;;;;;;;15.10;99.90;;;;;;5475482;26;19935;-64
2024/04/15 02:09:27;;;;;;;;;;;15.10;99.90;;;;;;5476938;26;19928;-63
2024/04/15 02:11:54;;;;;;;;;;;15.00;99.90;;;;;;5477294;26;19937;-63
2024/04/15 02:14:21;;;;;;;;;;;14.70;99.90;;;;;;5484016;26;19929;-63
2024/04/15 02:16:53;;;;;;;;;;;14.50;99.90;;;;;;5472767;26;19928;-63
2024/04/15 02:19:19;;;;;;;;;;;14.30;99.90;;;;;;5484887;26;19971;-63
2024/04/15 02:21:51;;;;;;;;;;;14.20;99.90;;;;;;5475587;26;19936;-63
2024/04/15 02:24:23;;;;;;;;;;;14.30;99.90;;;;;;5488297;26;19928;-63
2024/04/15 02:26:50;;;;;;;;;;;14.50;99.90;;;;;;5485843;26;20313;-63
2024/04/15 02:29:16;;;;;;;;;;;14.60;99.90;;;;;;5482307;26;19928;-63
2024/04/15 02:31:48;;;;;;;;;;;14.60;99.90;;;;;;5508556;26;19932;-63
2024/04/15 02:34:18;;;;;;;;;;;14.40;99.90;;;;;;5483202;26;19935;-63
2024/04/15 02:36:45;;;;;;;;;;;14.30;99.90;;;;;;5479292;26;20376;-63
2024/04/15 02:39:12;;;;;;;;;;;14.20;99.90;;;;;;5487416;26;19928;-63
2024/04/15 02:41:39;;;;;;;;;;;14.20;99.90;;;;;;5484867;26;19928;-63
2024/04/15 02:44:06;;;;;;;;;;;14.30;99.90;;;;;;5474240;26;20269;-63
2024/04/15 02:46:32;;;;;;;;;;;14.30;99.90;;;;;;5479643;26;19939;-63
2024/04/15 02:48:59;;;;;;;;;;;14.30;99.90;;;;;;5488791;26;20426;-63
2024/04/15 02:51:26;;;;;;;;;;;14.40;99.90;;;;;;5486094;26;20296;-63
2024/04/15 02:53:53;;;;;;;;;;;14.40;99.90;;;;;;5476082;26;19996;-63
2024/04/15 02:56:20;;;;;;;;;;;14.50;99.90;;;;;;5484996;26;19935;-63
2024/04/15 02:58:52;;;;;;;;;;;14.40;99.90;;;;;;5487320;26;20372;-63
2024/04/15 03:01:19;;;;;;;;;;;14.50;99.90;;;;;;5480416;26;19928;-63
2024/04/15 03:03:46;;;;;;;;;;;14.50;99.90;;;;;;5476072;26;19928;-63
2024/04/15 03:06:17;;;;;;;;;;;14.50;99.90;;;;;;5487214;26;20332;-63
2024/04/15 03:08:45;;;;;;;;;;;14.50;99.90;;;;;;5481242;26;20372;-63
2024/04/15 03:11:12;;;;;;;;;;;14.50;99.90;;;;;;5480592;26;19971;-63
2024/04/15 03:13:38;;;;;;;;;;;14.50;99.90;;;;;;5487581;26;19935;-63
2024/04/15 03:16:05;;;;;;;;;;;14.50;99.90;;;;;;5488025;26;19945;-63
2024/04/15 03:18:32;;;;;;;;;;;14.50;99.90;;;;;;5487014;26;20280;-63
2024/04/15 03:21:08;;;;;;;;;;;14.50;99.90;;;;;;5483744;26;20333;-63
2024/04/15 03:23:35;;;;;;;;;;;14.50;99.90;;;;;;5479613;26;19936;-63
2024/04/15 03:26:02;;;;;;;;;;;14.40;99.90;;;;;;5478593;26;19928;-63
2024/04/15 03:28:29;;;;;;;;;;;14.40;99.90;;;;;;5481597;26;19935;-63
2024/04/15 03:31:00;;;;;;;;;;;14.40;99.90;;;;;;5478025;26;19935;-63
2024/04/15 03:33:27;;;;;;;;;;;14.40;99.90;;;;;;5480711;26;19928;-64
2024/04/15 03:35:54;;;;;;;;;;;14.30;99.90;;;;;;5481162;26;19960;-63
2024/04/15 03:38:21;;;;;;;;;;;14.30;99.90;;;;;;5486869;26;20380;-63
2024/04/15 03:40:48;;;;;;;;;;;14.30;99.90;;;;;;5486068;26;19972;-64
2024/04/15 03:43:18;;;;;;;;;;;14.30;99.90;;;;;;5481208;26;19940;-63
2024/04/15 03:45:50;;;;;;;;;;;14.30;99.90;;;;;;5484780;26;19936;-63
2024/04/15 03:48:17;;;;;;;;;;;14.20;99.90;;;;;;5486631;26;19964;-63
2024/04/15 03:50:44;;;;;;;;;;;14.20;99.90;;;;;;5483188;26;19939;-63
2024/04/15 03:53:11;;;;;;;;;;;14.20;99.90;;;;;;5481714;26;19928;-63
2024/04/15 03:55:37;;;;;;;;;;;14.20;99.90;;;;;;5481356;26;19934;-63
2024/04/15 03:58:05;;;;;;;;;;;14.20;99.90;;;;;;5473837;26;19929;-64
2024/04/15 04:00:33;;;;;;;;;;;14.20;99.90;;;;;;5481072;26;19932;-63
2024/04/15 04:03:04;;;;;;;;;;;14.20;99.90;;;;;;5484316;26;19959;-63
2024/04/15 04:05:31;;;;;;;;;;;14.20;99.90;;;;;;5478811;26;19963;-64
2024/04/15 04:07:58;;;;;;;;;;;14.20;99.90;;;;;;5478296;26;20001;-64
2024/04/15 04:10:25;;;;;;;;;;;14.10;99.90;;;;;;5486196;26;19934;-65
2024/04/15 04:12:52;;;;;;;;;;;14.10;99.90;;;;;;5484427;26;19996;-64
2024/04/15 04:15:19;;;;;;;;;;;14.10;99.90;;;;;;5483810;26;19928;-64
2024/04/15 04:17:46;;;;;;;;;;;14.00;99.90;;;;;;5476218;26;19979;-63
2024/04/15 04:20:12;;;;;;;;;;;13.90;99.90;;;;;;5468923;26;19928;-63
2024/04/15 04:22:39;;;;;;;;;;;13.90;99.90;;;;;;5473818;26;19929;-63
2024/04/15 04:25:11;;;;;;;;;;;13.90;99.90;;;;;;5474634;26;20253;-65
2024/04/15 04:27:38;;;;;;;;;;;13.80;99.90;;;;;;5479972;26;20420;-63
2024/04/15 04:30:05;;;;;;;;;;;13.80;99.90;;;;;;5474675;26;20213;-63
2024/04/15 04:32:37;;;;;;;;;;;13.80;99.90;;;;;;5466051;26;19952;-63
2024/04/15 04:35:09;;;;;;;;;;;13.80;99.90;;;;;;5475078;26;19932;-64
2024/04/15 04:37:41;;;;;;;;;;;13.80;99.90;;;;;;5463662;26;19939;-63
2024/04/15 04:40:08;;;;;;;;;;;13.80;99.90;;;;;;5482834;26;19928;-63
2024/04/15 04:42:35;;;;;;;;;;;13.70;99.90;;;;;;5467054;26;19935;-64
2024/04/15 04:45:02;;;;;;;;;;;13.70;99.90;;;;;;5446765;26;19934;-63
2024/04/15 04:47:33;;;;;;;;;;;13.70;99.90;;;;;;5474481;26;19943;-63
2024/04/15 04:50:00;;;;;;;;;;;13.70;99.90;;;;;;5474816;26;20377;-63
2024/04/15 04:52:27;;;;;;;;;;;13.70;99.90;;;;;;5461780;26;19940;-63
2024/04/15 04:54:54;;;;;;;;;;;13.70;99.90;;;;;;5478205;26;20284;-63
2024/04/15 04:57:21;;;;;;;;;;;13.70;99.90;;;;;;5484187;26;19996;-63
2024/04/15 04:59:52;;;;;;;;;;;13.70;99.90;;;;;;5471514;26;20030;-63
2024/04/15 05:02:25;;;;;;;;;;;13.70;99.90;;;;;;5461846;26;19977;-63
2024/04/15 05:04:51;;;;;;;;;;;13.80;99.90;;;;;;5469141;26;20016;-63
2024/04/15 05:07:18;;;;;;;;;;;13.80;99.90;;;;;;5477997;26;19936;-63
2024/04/15 05:09:45;;;;;;;;;;;13.80;99.90;;;;;;5467078;26;19960;-63
2024/04/15 05:12:12;;;;;;;;;;;13.80;99.90;;;;;;5469040;26;19952;-63
2024/04/15 05:14:39;;;;;;;;;;;13.80;99.90;;;;;;5467885;26;19940;-63
2024/04/15 05:17:08;;;;;;;;;;;13.80;99.90;;;;;;5467900;26;19959;-63
2024/04/15 05:19:35;;;;;;;;;;;13.80;99.90;;;;;;5467449;26;20287;-63
2024/04/15 05:22:01;;;;;;;;;;;13.80;99.90;;;;;;5468043;26;19928;-63
2024/04/15 05:24:28;;;;;;;;;;;13.80;99.90;;;;;;5476194;26;19928;-63
2024/04/15 05:27:00;;;;;;;;;;;13.70;99.90;;;;;;5480097;26;19951;-63
2024/04/15 05:29:32;;;;;;;;;;;13.70;99.90;;;;;;5471627;26;19928;-63
2024/04/15 05:31:58;;;;;;;;;;;13.70;99.90;;;;;;5473783;26;19938;-63
2024/04/15 05:34:25;;;;;;;;;;;13.70;99.90;;;;;;5459364;26;19944;-63
2024/04/15 05:36:52;;;;;;;;;;;13.70;99.90;;;;;;5462237;26;19936;-63
2024/04/15 05:39:19;;;;;;;;;;;13.70;99.90;;;;;;5464556;26;19997;-63
2024/04/15 05:41:46;;;;;;;;;;;13.80;99.90;;;;;;5466094;26;19938;-63
2024/04/15 05:44:13;;;;;;;;;;;13.80;99.90;;;;;;5469809;26;20407;-63
2024/04/15 05:46:47;;;;;;;;;;;13.80;99.90;;;;;;5468205;26;19928;-63
2024/04/15 05:49:14;;;;;;;;;;;13.70;99.90;;;;;;5472617;26;20396;-63
2024/04/15 05:51:46;;;;;;;;;;;13.60;99.90;;;;;;5473900;26;19947;-63
2024/04/15 05:54:13;;;;;;;;;;;13.50;99.90;;;;;;5476541;26;19931;-63
2024/04/15 05:56:39;;;;;;;;;;;13.40;99.90;;;;;;5459252;26;19933;-63
2024/04/15 05:59:06;;;;;;;;;;;13.20;99.90;;;;;;5472040;26;19932;-63
2024/04/15 06:01:33;;;;;;;;;;;13.20;99.90;;;;;;5469066;26;19928;-63
2024/04/15 06:04:07;;;;;;;;;;;13.30;99.90;;;;;;5466482;26;19928;-64
2024/04/15 06:06:34;;;;;;;;;;;13.20;99.90;;;;;;5476284;26;20271;-64
2024/04/15 06:09:01;;;;;;;;;;;13.20;99.90;;;;;;5469561;26;19965;-64
2024/04/15 06:11:28;;;;;;;;;;;13.20;99.90;;;;;;5478039;26;19928;-63
2024/04/15 06:13:55;;;;;;;;;;;13.30;99.90;;;;;;5476366;26;19960;-64
2024/04/15 06:16:22;;;;;;;;;;;13.30;99.90;;;;;;5475483;26;20361;-64
2024/04/15 06:18:56;;;;;;;;;;;13.20;99.90;;;;;;5480368;26;19939;-64
2024/04/15 06:21:28;;;;;;;;;;;13.20;99.90;;;;;;5473941;26;19936;-64
2024/04/15 06:23:55;;;;;;;;;;;13.20;99.90;;;;;;5474407;26;19948;-64
2024/04/15 06:26:22;;;;;;;;;;;13.10;99.90;;;;;;5472071;26;20718;-64
2024/04/15 06:28:48;;;;;;;;;;;13.10;99.90;;;;;;5476637;26;19927;-63
2024/04/15 06:31:15;;;;;;;;;;;13.10;99.90;;;;;;5473646;26;20345;-69
2024/04/15 06:33:42;;;;;;;;;;;13.10;99.90;;;;;;5477238;26;19955;-63
2024/04/15 06:36:09;;;;;;;;;;;13.10;99.90;;;;;;5482470;26;19935;-64
2024/04/15 06:38:36;;;;;;;;;;;13.10;99.90;;;;;;5470205;26;20392;-63
2024/04/15 06:41:03;;;;;;;;;;;13.00;99.90;;;;;;5469953;26;19933;-63
2024/04/15 06:43:30;;;;;;;;;;;13.00;99.90;;;;;;5511217;26;19957;-63
2024/04/15 06:46:02;;;;;;;;;;;12.90;99.90;;;;;;5469055;26;20329;-63
2024/04/15 06:48:29;;;;;;;;;;;12.90;99.90;;;;;;5476154;26;20265;-63
2024/04/15 06:50:56;;;;;;;;;;;12.90;99.90;;;;;;5469346;26;19936;-64
2024/04/15 06:53:22;;;;;;;;;;;12.90;99.90;;;;;;5463112;26;19934;-63
2024/04/15 06:55:51;;;;;;;;;;;13.00;99.90;;;;;;5470457;26;19935;-63
2024/04/15 06:58:17;;;;;;;;;;;13.00;99.90;;;;;;5472349;26;19936;-64
2024/04/15 07:00:46;;;;;;;;;;;13.00;99.90;;;;;;5476723;26;19996;-63
2024/04/15 07:03:12;;;;;;;;;;;13.00;99.90;;;;;;5468057;26;19940;-63
2024/04/15 07:05:45;;;;;;;;;;;13.00;99.90;;;;;;5452644;26;19929;-63
2024/04/15 07:08:12;;;;;;;;;;;13.10;99.90;;;;;;5447670;26;19936;-64
2024/04/15 07:10:38;;;;;;;;;;;13.00;99.90;;;;;;5472965;26;19932;-63
2024/04/15 07:13:06;;;;;;;;;;;13.10;99.90;;;;;;5466970;26;19927;-63
2024/04/15 07:15:33;;;;;;;;;;;13.10;99.90;;;;;;5512838;25;19928;-63
2024/04/15 07:18:05;;;;;;;;;;;13.00;99.90;;;;;;5470557;26;19928;-63
2024/04/15 07:20:37;;;;;;;;;;;13.00;99.90;;;;;;5474362;26;20413;-63
2024/04/15 07:23:04;;;;;;;;;;;13.00;99.90;;;;;;5478568;26;19939;-64
2024/04/15 07:25:30;;;;;;;;;;;13.00;99.90;;;;;;5470537;26;19928;-63
2024/04/15 07:27:57;;;;;;;;;;;13.10;99.90;;;;;;5482716;26;20549;-64
2024/04/15 07:30:24;;;;;;;;;;;13.10;99.90;;;;;;5468581;26;19931;-64
2024/04/15 07:32:54;;;;;;;;;;;13.10;99.90;;;;;;5475820;26;19939;-64
2024/04/15 07:35:31;;;;;;;;;;;13.10;99.90;;;;;;5476833;26;19928;-64
2024/04/15 07:37:58;;;;;;;;;;;13.10;99.90;;;;;;5510225;26;19931;-64
2024/04/15 07:40:30;;;;;;;;;;;13.10;99.90;;;;;;5472721;26;20341;-63
2024/04/15 07:42:57;;;;;;;;;;;13.00;99.90;;;;;;5461275;26;19928;-63
2024/04/15 07:45:24;;;;;;;;;;;12.90;99.90;;;;;;5480944;26;19928;-64
2024/04/15 07:47:56;;;;;;;;;;;12.90;99.90;;;;;;5473154;26;20391;-64
2024/04/15 07:50:25;;;;;;;;;;;12.90;99.90;;;;;;5465821;26;19936;-63
2024/04/15 07:52:52;;;;;;;;;;;12.90;99.90;;;;;;5475515;26;19940;-63
2024/04/15 07:55:19;;;;;;;;;;;13.00;99.90;;;;;;5473876;26;19936;-63
2024/04/15 07:57:45;;;;;;;;;;;13.00;99.90;;;;;;5479506;26;19928;-63
2024/04/15 08:00:17;;;;;;;;;;;13.00;99.90;;;;;;5476601;26;20011;-63
2024/04/15 08:02:44;;;;;;;;;;;13.10;99.90;;;;;;5476351;26;19960;-64
2024/04/15 08:05:11;;;;;;;;;;;13.20;99.90;;;;;;5482139;26;19935;-63
2024/04/15 08:07:43;;;;;;;;;;;13.30;99.90;;;;;;5479808;26;19928;-63
2024/04/15 08:10:10;;;;;;;;;;;13.30;99.90;;;;;;5497533;25;19928;-63
2024/04/15 08:12:37;;;;;;;;;;;13.30;99.90;;;;;;5472771;26;19935;-64
2024/04/15 08:15:04;;;;;;;;;;;13.20;99.90;;;;;;5470910;26;19934;-63
2024/04/15 08:17:36;;;;;;;;;;;13.10;99.90;;;;;;5475519;26;19968;-64
2024/04/15 08:20:03;;;;;;;;;;;13.00;99.90;;;;;;5475329;26;19940;-64
2024/04/15 08:22:32;;;;;;;;;;;13.00;99.90;;;;;;5468266;26;20717;-64
2024/04/15 08:24:59;;;;;;;;;;;13.10;99.90;;;;;;5477637;26;19935;-64
2024/04/15 08:27:26;;;;;;;;;;;13.10;99.90;;;;;;5483844;26;19935;-63
2024/04/15 08:29:58;;;;;;;;;;;13.10;99.90;;;;;;5479623;26;19960;-64
2024/04/15 08:32:27;;;;;;;;;;;13.10;99.90;;;;;;5478758;26;19985;-64
2024/04/15 08:34:59;;;;;;;;;;;13.10;99.90;;;;;;5484246;26;19932;-64
2024/04/15 08:37:31;;;;;;;;;;;13.10;99.90;;;;;;5474662;26;19932;-65
2024/04/15 08:39:58;;;;;;;;;;;13.10;99.90;;;;;;5480201;26;19940;-63
2024/04/15 08:42:29;;;;;;;;;;;13.10;99.90;;;;;;5463753;26;20026;-64
2024/04/15 08:44:57;;;;;;;;;;;13.20;99.90;;;;;;5480336;26;19935;-64
2024/04/15 08:47:30;;;;;;;;;;;13.20;99.90;;;;;;5470602;26;19997;-64
2024/04/15 08:49:57;;;;;;;;;;;13.10;99.90;;;;;;5478851;26;20032;-64
2024/04/15 08:52:24;;;;;;;;;;;13.10;99.90;;;;;;5472034;26;20331;-64
2024/04/15 08:54:51;;;;;;;;;;;13.20;99.90;;;;;;5479556;26;20010;-64
2024/04/15 08:57:17;;;;;;;;;;;13.20;99.90;;;;;;5477453;26;19936;-63
2024/04/15 08:59:45;;;;;;;;;;;13.20;99.90;;;;;;5467196;26;20613;-63
2024/04/15 09:02:13;;;;;;;;;;;13.30;99.90;;;;;;5469374;26;19936;-64
2024/04/15 09:04:41;;;;;;;;;;;13.30;99.90;;;;;;5483870;26;19939;-64
2024/04/15 09:07:08;;;;;;;;;;;13.30;99.90;;;;;;5472290;26;19936;-63
2024/04/15 09:09:34;;;;;;;;;;;13.30;99.90;;;;;;5474520;26;19952;-63
2024/04/15 09:12:07;;;;;;;;;;;13.30;99.90;;;;;;5473721;26;19928;-63
2024/04/15 09:14:33;;;;;;;;;;;13.30;99.90;;;;;;5477836;26;19952;-63
2024/04/15 09:17:00;;;;;;;;;;;13.30;99.90;;;;;;5473636;26;19928;-63
2024/04/15 09:19:29;;;;;;;;;;;13.20;99.90;;;;;;5479258;26;19935;-63
2024/04/15 09:22:00;;;;;;;;;;;13.10;99.90;;;;;;5471233;26;20305;-64
2024/04/15 09:24:27;;;;;;;;;;;13.00;99.90;;;;;;5461166;26;20005;-64
2024/04/15 09:26:54;;;;;;;;;;;13.00;99.90;;;;;;5476769;26;19955;-64
2024/04/15 09:29:21;;;;;;;;;;;13.00;99.90;;;;;;5474911;26;19975;-63
2024/04/15 09:31:48;;;;;;;;;;;13.00;99.90;;;;;;5483654;26;19935;-64
2024/04/15 09:34:15;;;;;;;;;;;13.00;99.90;;;;;;5476690;26;19942;-64
2024/04/15 09:36:56;;;;;;;;;;;13.00;99.90;;;;;;5481004;26;19932;-64
2024/04/15 09:39:23;;;;;;;;;;;12.90;99.90;;;;;;5479199;26;19927;-63
2024/04/15 09:41:56;;;;;;;;;;;12.80;99.90;;;;;;5449882;26;19952;-64
2024/04/15 09:44:24;;;;;;;;;;;12.80;99.90;;;;;;5473007;26;19928;-64
2024/04/15 09:46:52;;;;;;;;;;;12.80;99.90;;;;;;5479495;26;19928;-64
2024/04/15 09:49:20;;;;;;;;;;;12.80;99.90;;;;;;5476720;26;19934;-64
2024/04/15 09:51:49;;;;;;;;;;;12.80;99.90;;;;;;5479602;26;20498;-64
2024/04/15 09:54:20;;;;;;;;;;;12.90;99.90;;;;;;5478255;26;20453;-64
2024/04/15 09:56:47;;;;;;;;;;;12.90;99.90;;;;;;5481649;26;19928;-64
2024/04/15 09:59:15;;;;;;;;;;;12.80;99.90;;;;;;5479717;26;19940;-64
2024/04/15 10:01:42;;;;;;;;;;;12.80;99.90;;;;;;5478274;26;19959;-64
2024/04/15 10:04:23;;;;;;;;;;;12.80;99.90;;;;;;5471442;26;19939;-64
2024/04/15 10:06:58;;;;;;;;;;;12.80;99.90;;;;;;5477940;26;19960;-64
2024/04/15 10:09:25;;;;;;;;;;;12.80;99.90;;;;;;5470526;26;19928;-64
2024/04/15 10:11:52;;;;;;;;;;;12.80;99.90;;;;;;5468714;26;19998;-64
2024/04/15 10:14:19;;;;;;;;;;;12.80;99.90;;;;;;5479567;26;20288;-64
2024/04/15 10:16:47;;;;;;;;;;;12.80;99.90;;;;;;5487278;26;19937;-64
2024/04/15 10:19:23;;;;;;;;;;;12.80;99.90;;;;;;5476045;26;19955;-64
2024/04/15 10:21:50;;;;;;;;;;;12.70;99.90;;;;;;5480391;26;20376;-63
2024/04/15 10:24:17;;;;;;;;;;;12.70;99.90;;;;;;5475106;26;20297;-63
2024/04/15 10:26:45;;;;;;;;;;;12.60;99.90;;;;;;5465961;26;19928;-64
2024/04/15 10:29:17;;;;;;;;;;;12.60;99.90;;;;;;5477035;26;20531;-63
2024/04/15 10:31:50;;;;;;;;;;;12.70;99.90;;;;;;5479137;26;19936;-64
2024/04/15 10:34:17;;;;;;;;;;;12.70;99.90;;;;;;5470759;26;19938;-64
2024/04/15 10:36:47;;;;;;;;;;;12.80;99.90;;;;;;5482086;26;19928;-64
2024/04/15 10:39:14;;;;;;;;;;;12.90;99.90;;;;;;5474306;26;19936;-64
2024/04/15 10:41:45;;;;;;;;;;;13.00;99.90;;;;;;5473611;26;20394;-64
2024/04/15 10:44:12;;;;;;;;;;;13.10;99.90;;;;;;5496565;26;19936;-63
2024/04/15 10:46:46;;;;;;;;;;;13.20;99.90;;;;;;5483084;26;19943;-64
2024/04/15 10:49:13;;;;;;;;;;;13.00;99.90;;;;;;5474258;26;20337;-63
2024/04/15 10:51:40;;;;;;;;;;;13.00;99.90;;;;;;5475940;26;20279;-63
2024/04/15 10:54:07;;;;;;;;;;;13.00;99.90;;;;;;5467739;26;19940;-63
2024/04/15 10:56:39;;;;;;;;;;;13.00;99.90;;;;;;5439386;26;19940;-64
2024/04/15 10:59:12;;;;;;;;;;;13.00;99.90;;;;;;5434423;26;19940;-63
2024/04/15 11:01:47;;;;;;;;;;;13.10;99.90;;;;;;5428242;26;19940;-63
2024/04/15 11:04:14;;;;;;;;;;;13.10;99.90;;;;;;5438099;26;20006;-63
2024/04/15 11:06:47;;;;;;;;;;;13.10;99.90;;;;;;5441271;26;19943;-63
2024/04/15 11:09:20;;;;;;;;;;;13.10;99.90;;;;;;5432886;26;19936;-63
2024/04/15 11:11:47;;;;;;;;;;;13.10;99.90;;;;;;5431412;26;19940;-63
2024/04/15 11:14:14;;;;;;;;;;;13.20;99.90;;;;;;5434687;26;19929;-63
2024/04/15 11:16:42;;;;;;;;;;;13.20;99.90;;;;;;5430300;26;19953;-63
2024/04/15 11:19:16;;;;;;;;;;;13.20;99.90;;;;;;5426223;26;19956;-63
2024/04/15 11:21:47;;;;;;;;;;;13.20;99.90;;;;;;5429371;26;19944;-63
2024/04/15 11:24:14;;;;;;;;;;;13.20;99.90;;;;;;5434476;26;19939;-63
2024/04/15 11:26:43;;;;;;;;;;;13.20;99.90;;;;;;5427226;26;19944;-63
2024/04/15 11:29:11;;;;;;;;;;;13.20;99.90;;;;;;5436910;26;19933;-63
2024/04/15 11:31:38;;;;;;;;;;;13.20;99.90;;;;;;5432674;26;19952;-63
2024/04/15 11:34:10;;;;;;;;;;;13.20;99.90;;;;;;5442011;26;19940;-63
2024/04/15 11:36:45;;;;;;;;;;;13.30;99.90;;;;;;5425500;26;19947;-63
2024/04/15 11:39:13;;;;;;;;;;;13.30;99.90;;;;;;5440137;26;19940;-63
2024/04/15 11:41:40;;;;;;;;;;;13.30;99.90;;;;;;5434805;26;19941;-63
2024/04/15 11:44:08;;;;;;;;;;;13.30;99.90;;;;;;5441715;26;19933;-63
2024/04/15 11:46:38;;;;;;;;;;;13.30;99.90;;;;;;5442482;26;19936;-63
2024/04/15 11:49:10;;;;;;;;;;;13.20;99.90;;;;;;5468708;26;19929;-63
2024/04/15 11:51:37;;;;;;;;;;;13.20;99.90;;;;;;5433966;26;20280;-63
2024/04/15 11:54:04;;;;;;;;;;;13.20;99.90;;;;;;5441163;26;20306;-63
2024/04/15 11:56:31;;;;;;;;;;;13.20;99.90;;;;;;5444730;26;19936;-64
2024/04/15 11:58:58;;;;;;;;;;;13.20;99.90;;;;;;5442466;26;19960;-64
2024/04/15 12:01:26;;;;;;;;;;;13.20;99.90;;;;;;5440793;26;20377;-64
2024/04/15 12:03:53;;;;;;;;;;;13.20;99.90;;;;;;5443023;26;19998;-64
2024/04/15 12:06:20;;;;;;;;;;;13.20;99.90;;;;;;5438444;26;19929;-64
2024/04/15 12:08:52;;;;;;;;;;;13.20;99.90;;;;;;5442606;26;19929;-64
2024/04/15 12:11:23;;;;;;;;;;;13.20;99.90;;;;;;5443167;26;19933;-64
2024/04/15 12:13:50;;;;;;;;;;;13.20;99.90;;;;;;5474668;26;19928;-64
2024/04/15 12:16:22;;;;;;;;;;;13.30;99.90;;;;;;5442277;26;20726;-63
2024/04/15 12:18:53;;;;;;;;;;;13.50;99.90;;;;;;5438922;26;19933;-64
2024/04/15 12:21:20;;;;;;;;;;;13.60;99.90;;;;;;5441573;26;19928;-64
2024/04/15 12:23:47;;;;;;;;;;;13.60;99.90;;;;;;5439763;26;19940;-63
2024/04/15 12:26:19;;;;;;;;;;;13.70;99.90;;;;;;5436754;26;19928;-64
2024/04/15 12:28:45;;;;;;;;;;;13.70;99.90;;;;;;5441633;26;19948;-63
2024/04/15 12:31:13;;;;;;;;;;;13.80;99.90;;;;;;5439016;26;20284;-63
2024/04/15 12:33:45;;;;;;;;;;;13.80;99.90;;;;;;5437174;26;19935;-63
2024/04/15 12:36:16;;;;;;;;;;;13.90;99.90;;;;;;5438254;26;19935;-64
2024/04/15 12:38:48;;;;;;;;;;;13.90;99.90;;;;;;5438062;26;19929;-63
2024/04/15 12:41:17;;;;;;;;;;;14.00;99.90;;;;;;5441499;26;20431;-63
2024/04/15 12:43:44;;;;;;;;;;;14.10;99.90;;;;;;5440372;26;19928;-63
2024/04/15 12:46:11;;;;;;;;;;;14.10;99.90;;;;;;5438111;26;19936;-63
2024/04/15 12:48:38;;;;;;;;;;;14.10;99.90;;;;;;5440813;26;20017;-63
2024/04/15 12:51:05;;;;;;;;;;;14.20;99.90;;;;;;5436530;26;19932;-63
2024/04/15 12:53:32;;;;;;;;;;;14.20;99.90;;;;;;5439376;26;19933;-63
2024/04/15 12:55:59;;;;;;;;;;;14.20;99.90;;;;;;5436719;26;19936;-63
2024/04/15 12:58:25;;;;;;;;;;;14.20;99.90;;;;;;5439945;26;19976;-63
2024/04/15 13:00:52;;;;;;;;;;;14.10;99.90;;;;;;5434441;26;19933;-63
2024/04/15 13:03:19;;;;;;;;;;;14.10;99.90;;;;;;5429410;26;19933;-63
2024/04/15 13:05:46;;;;;;;;;;;14.00;99.90;;;;;;5437856;26;20012;-63
2024/04/15 13:08:12;;;;;;;;;;;14.00;99.90;;;;;;5439722;26;19935;-63
2024/04/15 13:10:44;;;;;;;;;;;14.00;99.90;;;;;;5440661;26;20335;-63
2024/04/15 13:13:11;;;;;;;;;;;14.00;99.90;;;;;;5444084;26;19997;-63
2024/04/15 13:15:38;;;;;;;;;;;13.70;99.90;;;;;;5432955;26;19944;-63
2024/04/15 13:18:05;;;;;;;;;;;13.70;99.90;;;;;;5444171;26;20281;-63
2024/04/15 13:20:32;;;;;;;;;;;13.80;99.90;;;;;;5446248;26;20031;-64
2024/04/15 13:23:00;;;;;;;;;;;13.90;99.90;;;;;;5447429;26;20393;-64
2024/04/15 13:25:30;;;;;;;;;;;13.90;99.90;;;;;;5436321;26;20381;-64
2024/04/15 13:27:57;;;;;;;;;;;13.90;99.90;;;;;;5440714;26;19929;-64
2024/04/15 13:30:24;;;;;;;;;;;14.20;99.90;;;;;;5431401;26;19936;-63
2024/04/15 13:32:51;;;;;;;;;;;14.50;99.90;;;;;;5442179;26;19928;-64
2024/04/15 13:35:23;;;;;;;;;;;14.70;99.90;;;;;;5437836;26;19960;-63
2024/04/15 13:37:50;;;;;;;;;;;15.00;99.90;;;;;;5427430;26;19929;-63
2024/04/15 13:40:22;;;;;;;;;;;15.30;99.90;;;;;;5435492;26;19940;-63
2024/04/15 13:42:49;;;;;;;;;;;15.50;99.90;;;;;;5435582;26;19933;-63
2024/04/15 13:45:21;;;;;;;;;;;15.80;99.90;;;;;;5435564;26;19928;-64
2024/04/15 13:47:47;;;;;;;;;;;15.90;99.90;;;;;;5434903;26;20409;-65
2024/04/15 13:50:15;;;;;;;;;;;16.10;99.90;;;;;;5467179;26;20350;-63
2024/04/15 13:52:46;;;;;;;;;;;16.10;99.90;;;;;;5426269;26;19940;-63
2024/04/15 13:55:18;;;;;;;;;;;16.10;99.90;;;;;;5424525;26;19929;-63
2024/04/15 13:57:50;;;;;;;;;;;16.00;99.90;;;;;;5432385;26;19936;-63
2024/04/15 14:00:17;;;;;;;;;;;15.90;99.90;;;;;;5431879;26;19929;-63
2024/04/15 14:02:44;;;;;;;;;;;15.70;99.90;;;;;;5437796;26;20022;-63
2024/04/15 14:05:11;;;;;;;;;;;15.60;99.90;;;;;;5413803;26;19998;-63
2024/04/15 14:07:38;;;;;;;;;;;15.60;99.90;;;;;;5441342;26;19940;-63
2024/04/15 14:10:06;;;;;;;;;;;15.50;99.90;;;;;;5440368;26;20388;-63
2024/04/15 14:12:38;;;;;;;;;;;15.50;99.90;;;;;;5436186;26;19928;-63
2024/04/15 14:15:05;;;;;;;;;;;15.50;99.90;;;;;;5444369;26;19940;-63
2024/04/15 14:17:32;;;;;;;;;;;15.40;99.90;;;;;;5436795;26;19928;-63
2024/04/15 14:19:59;;;;;;;;;;;15.40;99.90;;;;;;5433597;26;20373;-63
2024/04/15 14:22:26;;;;;;;;;;;15.40;99.90;;;;;;5429289;26;19939;-63